createdAt,value
2022-08-22T00:00:16.729Z,92.745833
2022-08-22T00:03:02.259Z,88.500000
2022-08-22T00:05:16.757Z,92.854167
2022-08-22T00:10:25.310Z,92.900000
2022-08-22T00:15:42.264Z,92.891667
2022-08-22T00:20:16.813Z,92.775000
2022-08-22T00:25:25.895Z,92.975000
2022-08-22T00:30:16.608Z,93.141667
2022-08-22T00:35:16.641Z,92.991667
2022-08-22T00:40:16.641Z,92.966667
2022-08-22T00:45:16.794Z,93.108000
2022-08-22T00:50:16.651Z,92.916667
2022-08-22T00:55:16.877Z,92.912500
2022-08-22T01:00:16.612Z,93.058333
2022-08-22T01:05:17.047Z,93.083333
2022-08-22T01:10:16.926Z,93.154167
2022-08-22T01:15:17.011Z,93.200000
2022-08-22T01:20:16.978Z,93.233333
2022-08-22T01:25:17.184Z,93.237500
2022-08-22T01:30:17.189Z,93.200000
2022-08-22T01:35:16.601Z,93.066667
2022-08-22T01:40:16.608Z,93.250000
2022-08-22T01:45:16.601Z,93.087500
2022-08-22T01:50:16.595Z,93.200000
2022-08-22T01:55:16.548Z,93.184000
2022-08-22T02:00:16.683Z,93.233333
2022-08-22T02:05:16.642Z,93.200000
2022-08-22T02:10:16.616Z,93.475000
2022-08-22T02:15:16.792Z,93.404167
2022-08-22T02:20:16.585Z,93.204167
2022-08-22T02:25:16.593Z,93.250000
2022-08-22T02:30:16.820Z,93.316667
2022-08-22T02:35:16.576Z,93.333333
2022-08-22T02:40:16.644Z,93.245833
2022-08-22T02:45:16.570Z,93.191667
2022-08-22T02:50:17.027Z,93.256000
2022-08-22T02:55:16.494Z,93.300000
2022-08-22T03:00:31.270Z,93.316667
2022-08-22T03:05:16.532Z,93.400000
2022-08-22T03:10:17.080Z,93.400000
2022-08-22T03:15:17.064Z,93.558333
2022-08-22T03:20:16.817Z,93.591667
2022-08-22T03:25:16.604Z,93.608333
2022-08-22T03:30:16.706Z,93.600000
2022-08-22T03:35:16.602Z,93.600000
2022-08-22T03:40:16.721Z,93.525000
2022-08-22T03:45:16.601Z,93.541667
2022-08-22T03:50:16.546Z,93.583333
2022-08-22T03:55:16.582Z,93.583333
2022-08-22T04:00:16.517Z,93.608333
2022-08-22T04:05:16.546Z,93.400000
2022-08-22T04:10:16.503Z,93.450000
2022-08-22T04:15:16.712Z,93.540000
2022-08-22T04:20:16.711Z,93.479167
2022-08-22T04:25:16.518Z,93.500000
2022-08-22T04:30:16.823Z,93.541667
2022-08-22T04:35:16.516Z,93.520833
2022-08-22T04:40:16.601Z,93.579167
2022-08-22T04:45:16.534Z,93.766667
2022-08-22T04:50:16.773Z,93.795833
2022-08-22T04:55:16.494Z,93.900000
2022-08-22T05:00:16.563Z,93.884000
2022-08-22T05:05:16.544Z,93.825000
2022-08-22T05:10:16.556Z,93.941667
2022-08-22T05:15:22.865Z,93.929167
2022-08-22T05:20:16.644Z,94.050000
2022-08-22T05:25:16.583Z,94.091667
2022-08-22T05:30:16.531Z,94.041667
2022-08-22T05:35:16.741Z,94.166667
2022-08-22T05:40:16.923Z,94.141667
2022-08-22T05:45:16.536Z,94.124000
2022-08-22T05:50:17.016Z,94.204167
2022-08-22T05:55:16.679Z,94.100000
2022-08-22T06:00:16.680Z,94.116000
2022-08-22T06:05:16.805Z,94.200000
2022-08-22T06:10:16.534Z,94.116667
2022-08-22T06:15:16.917Z,94.195833
2022-08-22T06:20:16.498Z,94.154167
2022-08-22T06:25:16.531Z,94.000000
2022-08-22T06:30:16.520Z,94.012500
2022-08-22T06:35:16.505Z,93.529167
2022-08-22T06:40:16.565Z,93.125000
2022-08-22T06:45:16.501Z,93.000000
2022-08-22T06:50:16.480Z,91.712500
2022-08-22T06:55:16.483Z,91.562500
2022-08-22T07:00:16.469Z,90.437500
2022-08-22T07:05:16.514Z,90.633333
2022-08-22T07:10:19.169Z,88.779167
2022-08-22T07:15:19.124Z,88.736000
2022-08-22T07:20:19.038Z,87.683333
2022-08-22T07:25:19.060Z,87.362500
2022-08-22T07:30:27.920Z,88.566667
2022-08-22T07:35:19.011Z,87.983333
2022-08-22T07:40:19.062Z,85.825000
2022-08-22T07:45:19.056Z,82.112500
2022-08-22T07:50:19.074Z,81.687500
2022-08-22T07:55:19.112Z,78.500000
2022-08-22T08:00:19.052Z,77.079167
2022-08-22T08:05:19.015Z,75.375000
2022-08-22T08:10:19.431Z,74.533333
2022-08-22T08:15:18.975Z,72.675000
2022-08-22T08:20:19.130Z,71.116667
2022-08-22T08:25:19.354Z,70.424000
2022-08-22T08:30:19.001Z,68.491667
2022-08-22T08:35:18.988Z,65.920833
2022-08-22T08:40:18.977Z,64.045833
2022-08-22T08:45:18.959Z,64.600000
2022-08-22T08:50:19.589Z,60.966667
2022-08-22T08:55:21.931Z,60.375000
2022-08-22T09:00:18.933Z,60.095833
2022-08-22T09:05:19.555Z,59.000000
2022-08-22T09:10:19.114Z,59.566667
2022-08-22T09:15:19.024Z,60.200000
2022-08-22T09:20:19.304Z,59.750000
2022-08-22T09:25:19.206Z,59.633333
2022-08-22T09:30:18.862Z,60.883333
2022-08-22T09:35:18.910Z,60.591667
2022-08-22T09:40:22.190Z,61.495833
2022-08-22T09:40:30.430Z,61.495833
2022-08-22T09:45:18.940Z,62.266667
2022-08-22T09:50:18.993Z,60.341667
2022-08-22T09:55:18.964Z,60.116667
2022-08-22T10:00:22.388Z,59.900000
2022-08-22T10:05:40.729Z,59.566667
2022-08-22T10:10:21.511Z,59.562500
2022-08-22T10:15:16.445Z,57.850000
2022-08-22T10:20:16.493Z,57.287500
2022-08-22T10:25:16.468Z,57.500000
2022-08-22T10:30:16.570Z,56.333333
2022-08-22T10:35:16.454Z,58.954167
2022-08-22T10:40:16.869Z,59.195833
2022-08-22T10:45:16.853Z,59.044000
2022-08-22T10:50:16.479Z,57.775000
2022-08-22T10:55:17.073Z,57.700000
2022-08-22T11:00:16.929Z,57.872000
2022-08-22T11:05:16.496Z,58.395833
2022-08-22T11:10:16.423Z,58.429167
2022-08-22T11:15:28.298Z,58.641667
2022-08-22T11:20:16.391Z,57.991667
2022-08-22T11:25:35.658Z,56.083333
2022-08-22T11:30:18.779Z,56.583333
2022-08-22T11:35:16.427Z,56.400000
2022-08-22T11:40:16.690Z,56.537500
2022-08-22T11:45:16.435Z,55.366667
2022-08-22T11:50:16.543Z,55.272000
2022-08-22T11:55:16.393Z,54.712000
2022-08-22T12:00:16.511Z,54.964000
2022-08-22T12:05:19.536Z,55.358333
2022-08-22T12:10:16.454Z,56.344000
2022-08-22T12:15:16.414Z,56.616667
2022-08-22T12:20:17.459Z,55.820833
2022-08-22T12:25:16.708Z,56.433333
2022-08-22T12:30:16.431Z,57.233333
2022-08-22T12:35:16.372Z,55.679167
2022-08-22T12:40:16.543Z,55.258333
2022-08-22T12:45:16.407Z,55.728000
2022-08-22T12:50:16.375Z,54.470833
2022-08-22T12:55:16.519Z,55.450000
2022-08-22T13:00:16.801Z,56.425000
2022-08-22T13:05:19.685Z,56.450000
2022-08-22T13:10:17.397Z,57.429167
2022-08-22T13:15:16.359Z,57.300000
2022-08-22T13:20:16.387Z,56.233333
2022-08-22T13:25:16.502Z,55.770833
2022-08-22T13:30:16.377Z,56.862500
2022-08-22T13:35:16.343Z,56.283333
2022-08-22T13:40:16.491Z,55.475000
2022-08-22T13:45:16.319Z,55.433333
2022-08-22T13:50:16.406Z,54.983333
2022-08-22T13:55:16.338Z,54.216667
2022-08-22T14:00:28.799Z,56.237500
2022-08-22T14:05:16.396Z,56.300000
2022-08-22T14:10:16.368Z,54.500000
2022-08-22T14:15:16.272Z,55.166667
2022-08-22T14:20:32.520Z,55.629167
2022-08-22T14:25:16.356Z,55.556000
2022-08-22T14:30:16.304Z,55.108000
2022-08-22T14:35:23.102Z,54.337500
2022-08-22T14:40:16.370Z,55.566667
2022-08-22T14:45:16.376Z,55.712500
2022-08-22T14:50:16.618Z,56.728000
2022-08-22T14:55:16.351Z,56.383333
2022-08-22T15:00:16.331Z,56.216667
2022-08-22T15:05:16.971Z,56.216667
2022-08-22T15:10:16.309Z,55.984000
2022-08-22T15:15:16.358Z,55.837500
2022-08-22T15:20:22.725Z,56.228000
2022-08-22T15:25:16.711Z,56.462500
2022-08-22T15:30:20.359Z,56.066667
2022-08-22T15:35:16.352Z,56.676000
2022-08-22T15:40:16.332Z,59.462500
2022-08-22T15:45:16.601Z,60.487500
2022-08-22T15:50:17.813Z,61.266667
2022-08-22T15:55:16.531Z,61.837500
2022-08-22T16:00:16.473Z,62.804167
2022-08-22T16:05:16.722Z,62.275000
2022-08-22T16:10:16.353Z,63.016667
2022-08-22T16:15:16.276Z,62.612500
2022-08-22T16:20:20.149Z,62.966667
2022-08-22T16:25:16.355Z,63.012000
2022-08-22T16:30:16.270Z,63.920833
2022-08-22T16:35:16.302Z,64.241667
2022-08-22T16:40:16.624Z,64.100000
2022-08-22T16:45:16.854Z,65.276000
2022-08-22T16:50:16.677Z,64.800000
2022-08-22T16:55:16.320Z,66.116667
2022-08-22T17:00:19.981Z,66.033333
2022-08-22T17:05:16.744Z,65.700000
2022-08-22T17:10:16.579Z,66.484000
2022-08-22T17:15:16.390Z,68.383333
2022-08-22T17:20:16.317Z,70.725000
2022-08-22T17:25:16.318Z,70.948000
2022-08-22T17:30:16.490Z,69.287500
2022-08-22T17:35:16.288Z,69.316667
2022-08-22T17:40:16.485Z,70.020833
2022-08-22T17:45:16.643Z,70.441667
2022-08-22T17:50:16.271Z,70.266667
2022-08-22T17:55:16.290Z,70.496000
2022-08-22T18:00:16.355Z,71.054167
2022-08-22T18:05:16.313Z,72.479167
2022-08-22T18:10:16.478Z,74.533333
2022-08-22T18:15:16.439Z,74.191667
2022-08-22T18:20:16.287Z,73.133333
2022-08-22T18:25:16.427Z,73.076000
2022-08-22T18:30:16.297Z,72.662500
2022-08-22T18:35:16.780Z,72.125000
2022-08-22T18:40:16.572Z,72.379167
2022-08-22T18:45:16.528Z,72.450000
2022-08-22T18:50:16.370Z,73.804167
2022-08-22T18:55:16.241Z,74.625000
2022-08-22T19:00:16.632Z,75.850000
2022-08-22T19:10:16.591Z,78.616667
2022-08-22T19:15:17.032Z,79.975000
2022-08-22T19:20:16.340Z,80.495833
2022-08-22T19:25:16.373Z,81.716000
2022-08-22T19:30:16.328Z,83.070833
2022-08-22T19:35:16.467Z,84.580000
2022-08-22T19:40:16.246Z,85.220833
2022-08-22T19:45:16.370Z,85.450000
2022-08-22T19:50:16.328Z,85.675000
2022-08-22T19:55:16.300Z,85.552000
2022-08-22T20:00:16.419Z,84.916000
2022-08-22T20:05:16.984Z,83.683333
2022-08-22T20:10:16.227Z,83.848000
2022-08-22T20:15:16.526Z,85.520833
2022-08-22T20:20:17.713Z,86.279167
2022-08-22T20:25:41.525Z,86.583333
2022-08-22T20:30:16.445Z,86.633333
2022-08-22T20:35:16.996Z,86.779167
2022-08-22T20:40:25.913Z,86.748000
2022-08-22T20:45:16.253Z,86.554167
2022-08-22T20:50:16.316Z,86.275000
2022-08-22T20:55:16.231Z,86.545833
2022-08-22T21:00:16.244Z,87.075000
2022-08-22T21:05:16.247Z,87.804167
2022-08-22T21:10:21.616Z,88.479167
2022-08-22T21:15:16.481Z,88.850000
2022-08-22T21:20:16.470Z,89.020833
2022-08-22T21:25:16.705Z,89.150000
2022-08-22T21:30:16.595Z,89.180000
2022-08-22T21:35:16.687Z,89.445833
2022-08-22T21:40:16.321Z,89.691667
2022-08-22T21:45:16.281Z,89.729167
2022-08-22T21:50:16.264Z,89.868000
2022-08-22T21:55:16.354Z,89.933333
2022-08-22T22:00:16.197Z,89.980000
2022-08-22T22:05:16.207Z,90.232000
2022-08-22T22:10:18.693Z,90.324000
2022-08-22T22:15:18.824Z,90.508333
2022-08-22T22:20:18.993Z,90.437500
2022-08-22T22:25:41.324Z,90.516000
2022-08-22T22:30:18.931Z,90.537500
2022-08-22T22:35:18.660Z,90.700000
2022-08-22T22:40:19.268Z,90.662500
2022-08-22T22:45:18.719Z,90.683333
2022-08-22T22:50:18.639Z,90.612500
2022-08-22T22:55:24.733Z,90.654167
2022-08-22T23:00:18.981Z,90.650000
2022-08-22T23:05:18.717Z,90.791667
2022-08-22T23:10:22.092Z,90.916667
2022-08-22T23:15:18.709Z,91.062500
2022-08-22T23:20:19.290Z,90.837500
2022-08-22T23:25:18.811Z,90.920833
2022-08-22T23:30:18.681Z,91.054167
2022-08-22T23:35:19.024Z,91.033333
2022-08-22T23:40:19.160Z,91.062500
2022-08-22T23:45:19.034Z,91.087500
2022-08-22T23:50:18.634Z,91.091667
2022-08-22T23:55:19.037Z,91.216667
